sensor_id;sensor_type;location;lat;lon;timestamp;pressure;altitude;pressure_sealevel;temperature;humidity
74975;BME280;64061;50.836;19.138;2022-10-31T00:02:36;98882.59;;;22.13;62.59
74975;BME280;64061;50.836;19.138;2022-10-31T00:05:40;98880.16;;;22.12;62.60
74975;BME280;64061;50.836;19.138;2022-10-31T00:08:44;98880.16;;;22.12;62.35
74975;BME280;64061;50.836;19.138;2022-10-31T00:11:49;98882.88;;;22.12;62.41
74975;BME280;64061;50.836;19.138;2022-10-31T00:14:52;98876.56;;;22.11;62.47
74975;BME280;64061;50.836;19.138;2022-10-31T00:17:55;98872.22;;;22.10;62.51
74975;BME280;64061;50.836;19.138;2022-10-31T00:20:59;98884.00;;;22.11;62.35
74975;BME280;64061;50.836;19.138;2022-10-31T00:24:05;98887.56;;;22.11;62.29
74975;BME280;64061;50.836;19.138;2022-10-31T00:27:09;98889.50;;;22.11;62.47
74975;BME280;64061;50.836;19.138;2022-10-31T00:30:13;98885.13;;;22.10;62.54
74975;BME280;64061;50.836;19.138;2022-10-31T00:33:16;98887.06;;;22.09;62.39
74975;BME280;64061;50.836;19.138;2022-10-31T00:36:20;98892.56;;;22.09;62.52
74975;BME280;64061;50.836;19.138;2022-10-31T00:39:23;98897.25;;;22.09;62.43
74975;BME280;64061;50.836;19.138;2022-10-31T00:42:28;98900.00;;;22.09;62.30
74975;BME280;64061;50.836;19.138;2022-10-31T00:45:32;98900.28;;;22.07;62.39
74975;BME280;64061;50.836;19.138;2022-10-31T00:48:36;98896.41;;;22.08;62.47
74975;BME280;64061;50.836;19.138;2022-10-31T00:51:39;98890.94;;;22.08;62.45
74975;BME280;64061;50.836;19.138;2022-10-31T00:54:43;98890.09;;;22.08;62.26
74975;BME280;64061;50.836;19.138;2022-10-31T00:57:48;98898.34;;;22.08;62.55
74975;BME280;64061;50.836;19.138;2022-10-31T01:00:51;98900.28;;;22.07;62.35
74975;BME280;64061;50.836;19.138;2022-10-31T01:03:58;98888.47;;;22.07;62.24
74975;BME280;64061;50.836;19.138;2022-10-31T01:07:01;98897.53;;;22.07;62.27
74975;BME280;64061;50.836;19.138;2022-10-31T01:10:05;98895.59;;;22.08;62.35
74975;BME280;64061;50.836;19.138;2022-10-31T01:13:11;98892.84;;;22.08;62.20
74975;BME280;64061;50.836;19.138;2022-10-31T01:16:16;98898.63;;;22.06;62.25
74975;BME280;64061;50.836;19.138;2022-10-31T01:19:21;98907.16;;;22.04;62.32
74975;BME280;64061;50.836;19.138;2022-10-31T01:22:24;98904.41;;;22.04;62.22
74975;BME280;64061;50.836;19.138;2022-10-31T01:25:28;98895.34;;;22.04;62.49
74975;BME280;64061;50.836;19.138;2022-10-31T01:28:33;98902.50;;;22.05;62.20
74975;BME280;64061;50.836;19.138;2022-10-31T01:31:39;98906.63;;;22.02;62.39
74975;BME280;64061;50.836;19.138;2022-10-31T01:34:43;98900.31;;;22.02;62.25
74975;BME280;64061;50.836;19.138;2022-10-31T01:37:48;98897.28;;;22.03;62.22
74975;BME280;64061;50.836;19.138;2022-10-31T01:40:51;98900.03;;;22.03;62.20
74975;BME280;64061;50.836;19.138;2022-10-31T01:43:58;98900.84;;;22.04;62.20
74975;BME280;64061;50.836;19.138;2022-10-31T01:47:05;98898.09;;;22.04;62.12
74975;BME280;64061;50.836;19.138;2022-10-31T01:50:24;98897.00;;;22.05;62.17
74975;BME280;64061;50.836;19.138;2022-10-31T01:53:31;98897.88;;;22.00;62.34
74975;BME280;64061;50.836;19.138;2022-10-31T01:56:37;98900.03;;;22.03;62.17
74975;BME280;64061;50.836;19.138;2022-10-31T01:59:53;98898.41;;;22.02;62.28
74975;BME280;64061;50.836;19.138;2022-10-31T02:03:00;98900.06;;;21.98;62.35
74975;BME280;64061;50.836;19.138;2022-10-31T02:06:06;98899.50;;;22.01;62.18
74975;BME280;64061;50.836;19.138;2022-10-31T02:09:19;98901.72;;;21.99;62.37
74975;BME280;64061;50.836;19.138;2022-10-31T02:12:25;98900.91;;;21.99;62.28
74975;BME280;64061;50.836;19.138;2022-10-31T02:15:35;98895.66;;;21.97;62.32
74975;BME280;64061;50.836;19.138;2022-10-31T02:18:40;98901.97;;;21.98;62.29
74975;BME280;64061;50.836;19.138;2022-10-31T02:21:48;98904.47;;;21.99;62.41
74975;BME280;64061;50.836;19.138;2022-10-31T02:25:13;98900.63;;;22.00;62.08
74975;BME280;64061;50.836;19.138;2022-10-31T02:28:41;98898.41;;;21.97;62.04
74975;BME280;64061;50.836;19.138;2022-10-31T02:32:07;98896.81;;;21.96;62.15
74975;BME280;64061;50.836;19.138;2022-10-31T02:35:24;98894.06;;;21.96;62.29
74975;BME280;64061;50.836;19.138;2022-10-31T02:38:45;98890.50;;;21.96;62.30
74975;BME280;64061;50.836;19.138;2022-10-31T02:42:11;98895.75;;;21.92;62.18
74975;BME280;64061;50.836;19.138;2022-10-31T02:45:25;98902.59;;;21.95;62.24
74975;BME280;64061;50.836;19.138;2022-10-31T02:48:37;98896.56;;;21.93;62.23
74975;BME280;64061;50.836;19.138;2022-10-31T02:51:43;98896.84;;;21.91;62.28
74975;BME280;64061;50.836;19.138;2022-10-31T02:54:50;98896.84;;;21.91;62.23
74975;BME280;64061;50.836;19.138;2022-10-31T02:57:57;98901.22;;;21.92;62.17
74975;BME280;64061;50.836;19.138;2022-10-31T03:01:35;98900.66;;;21.95;62.01
74975;BME280;64061;50.836;19.138;2022-10-31T03:05:14;98905.63;;;21.93;61.57
74975;BME280;64061;50.836;19.138;2022-10-31T03:08:41;98917.47;;;21.89;62.23
74975;BME280;64061;50.836;19.138;2022-10-31T03:11:57;98908.13;;;21.90;62.20
74975;BME280;64061;50.836;19.138;2022-10-31T03:15:12;98918.00;;;21.91;62.04
74975;BME280;64061;50.836;19.138;2022-10-31T03:18:25;98907.31;;;21.89;62.23
74975;BME280;64061;50.836;19.138;2022-10-31T03:21:38;98911.69;;;21.90;62.18
74975;BME280;64061;50.836;19.138;2022-10-31T03:24:47;98919.41;;;21.88;62.05
74975;BME280;64061;50.836;19.138;2022-10-31T03:27:54;98916.66;;;21.88;62.06
74975;BME280;64061;50.836;19.138;2022-10-31T03:31:03;98915.00;;;21.87;62.00
74975;BME280;64061;50.836;19.138;2022-10-31T03:34:12;98919.69;;;21.87;62.14
74975;BME280;64061;50.836;19.138;2022-10-31T03:37:19;98934.25;;;21.87;62.01
74975;BME280;64061;50.836;19.138;2022-10-31T03:40:27;98929.84;;;21.86;62.22
74975;BME280;64061;50.836;19.138;2022-10-31T03:43:38;98931.19;;;21.89;61.88
74975;BME280;64061;50.836;19.138;2022-10-31T03:46:49;98926.28;;;21.86;61.94
74975;BME280;64061;50.836;19.138;2022-10-31T03:49:55;98937.28;;;21.86;61.97
74975;BME280;64061;50.836;19.138;2022-10-31T03:53:04;98930.38;;;21.88;62.00
74975;BME280;64061;50.836;19.138;2022-10-31T03:56:19;98930.38;;;21.88;61.96
74975;BME280;64061;50.836;19.138;2022-10-31T03:59:32;98941.66;;;21.87;61.97
74975;BME280;64061;50.836;19.138;2022-10-31T04:02:42;98933.41;;;21.87;62.07
74975;BME280;64061;50.836;19.138;2022-10-31T04:05:52;98941.94;;;21.85;62.20
74975;BME280;64061;50.836;19.138;2022-10-31T04:09:02;98939.19;;;21.85;62.12
74975;BME280;64061;50.836;19.138;2022-10-31T04:12:12;98938.69;;;21.83;62.06
74975;BME280;64061;50.836;19.138;2022-10-31T04:15:33;98934.31;;;21.82;61.77
74975;BME280;64061;50.836;19.138;2022-10-31T04:18:41;98938.97;;;21.82;62.12
74975;BME280;64061;50.836;19.138;2022-10-31T04:21:44;98949.69;;;21.83;62.29
74975;BME280;64061;50.836;19.138;2022-10-31T04:24:49;98943.38;;;21.83;61.79
74975;BME280;64061;50.836;19.138;2022-10-31T04:27:52;98937.06;;;21.82;61.95
74975;BME280;64061;50.836;19.138;2022-10-31T04:30:57;98925.25;;;21.82;62.06
74975;BME280;64061;50.836;19.138;2022-10-31T04:34:02;98935.13;;;21.83;62.04
74975;BME280;64061;50.836;19.138;2022-10-31T04:37:06;98938.97;;;21.82;61.97
74975;BME280;64061;50.836;19.138;2022-10-31T04:40:11;98937.06;;;21.82;62.01
74975;BME280;64061;50.836;19.138;2022-10-31T04:43:33;98942.00;;;21.80;62.09
74975;BME280;64061;50.836;19.138;2022-10-31T04:46:36;98944.47;;;21.82;61.88
74975;BME280;64061;50.836;19.138;2022-10-31T04:49:40;98947.22;;;21.82;62.14
74975;BME280;64061;50.836;19.138;2022-10-31T04:52:46;98949.16;;;21.81;62.12
74975;BME280;64061;50.836;19.138;2022-10-31T04:55:54;98952.72;;;21.82;62.02
74975;BME280;64061;50.836;19.138;2022-10-31T04:58:59;98954.94;;;21.80;61.84
74975;BME280;64061;50.836;19.138;2022-10-31T05:02:11;98946.69;;;21.80;61.83
74975;BME280;64061;50.836;19.138;2022-10-31T05:05:26;98947.50;;;21.80;61.89
74975;BME280;64061;50.836;19.138;2022-10-31T05:08:33;98947.50;;;21.80;61.99
74975;BME280;64061;50.836;19.138;2022-10-31T05:11:41;98946.41;;;21.81;61.96
74975;BME280;64061;50.836;19.138;2022-10-31T05:15:07;98941.47;;;21.78;61.97
74975;BME280;64061;50.836;19.138;2022-10-31T05:18:30;98958.78;;;21.79;61.52
74975;BME280;64061;50.836;19.138;2022-10-31T05:21:48;98958.78;;;21.79;62.00
74975;BME280;64061;50.836;19.138;2022-10-31T05:24:53;98948.06;;;21.77;61.83
74975;BME280;64061;50.836;19.138;2022-10-31T05:27:58;98956.59;;;21.76;61.97
74975;BME280;64061;50.836;19.138;2022-10-31T05:31:02;98964.84;;;21.76;61.75
74975;BME280;64061;50.836;19.138;2022-10-31T05:34:06;98962.91;;;21.76;61.73
74975;BME280;64061;50.836;19.138;2022-10-31T05:37:28;98967.31;;;21.77;61.66
74975;BME280;64061;50.836;19.138;2022-10-31T05:40:31;98976.88;;;21.80;61.57
74975;BME280;64061;50.836;19.138;2022-10-31T05:43:37;98971.66;;;21.83;61.21
74975;BME280;64061;50.836;19.138;2022-10-31T05:46:41;98966.16;;;21.83;61.14
74975;BME280;64061;50.836;19.138;2022-10-31T05:50:03;98969.13;;;21.87;61.34
74975;BME280;64061;50.836;19.138;2022-10-31T05:53:10;98959.78;;;21.88;61.12
74975;BME280;64061;50.836;19.138;2022-10-31T05:56:14;98972.13;;;21.90;61.15
74975;BME280;64061;50.836;19.138;2022-10-31T05:59:19;98968.78;;;21.93;61.04
74975;BME280;64061;50.836;19.138;2022-10-31T06:02:22;98970.16;;;21.96;60.90
74975;BME280;64061;50.836;19.138;2022-10-31T06:05:54;98973.41;;;21.98;60.96
74975;BME280;64061;50.836;19.138;2022-10-31T06:09:01;98976.72;;;22.00;60.81
74975;BME280;64061;50.836;19.138;2022-10-31T06:12:08;98975.84;;;22.04;60.55
74975;BME280;64061;50.836;19.138;2022-10-31T06:15:47;98980.47;;;22.09;60.51
74975;BME280;64061;50.836;19.138;2022-10-31T06:18:55;98976.25;;;22.17;60.52
74975;BME280;64061;50.836;19.138;2022-10-31T06:21:58;98978.38;;;22.25;61.19
74975;BME280;64061;50.836;19.138;2022-10-31T06:25:03;98973.41;;;22.27;61.49
74975;BME280;64061;50.836;19.138;2022-10-31T06:28:11;98987.97;;;22.27;61.42
74975;BME280;64061;50.836;19.138;2022-10-31T06:31:36;98981.88;;;22.30;61.28
74975;BME280;64061;50.836;19.138;2022-10-31T06:34:40;98989.25;;;22.35;61.28
74975;BME280;64061;50.836;19.138;2022-10-31T06:37:51;98974.91;;;22.38;61.54
74975;BME280;64061;50.836;19.138;2022-10-31T06:41:11;98982.66;;;22.36;61.36
74975;BME280;64061;50.836;19.138;2022-10-31T06:44:20;98983.97;;;22.38;61.48
74975;BME280;64061;50.836;19.138;2022-10-31T06:47:31;98988.91;;;22.42;61.37
74975;BME280;64061;50.836;19.138;2022-10-31T06:50:51;98996.31;;;22.41;61.67
74975;BME280;64061;50.836;19.138;2022-10-31T06:54:00;98995.22;;;22.42;61.65
74975;BME280;64061;50.836;19.138;2022-10-31T06:57:06;98993.53;;;22.46;61.59
74975;BME280;64061;50.836;19.138;2022-10-31T07:00:12;99004.44;;;22.51;61.86
74975;BME280;64061;50.836;19.138;2022-10-31T07:03:20;99004.94;;;22.58;62.28
74975;BME280;64061;50.836;19.138;2022-10-31T07:06:23;98999.38;;;22.63;62.11
74975;BME280;64061;50.836;19.138;2022-10-31T07:09:28;99013.03;;;22.68;62.46
74975;BME280;64061;50.836;19.138;2022-10-31T07:12:35;99011.06;;;22.74;62.84
74975;BME280;64061;50.836;19.138;2022-10-31T07:15:40;99003.06;;;22.78;62.55
74975;BME280;64061;50.836;19.138;2022-10-31T07:18:46;99014.28;;;22.81;62.63
74975;BME280;64061;50.836;19.138;2022-10-31T07:21:49;99014.75;;;22.88;62.48
74975;BME280;64061;50.836;19.138;2022-10-31T07:24:53;99026.50;;;22.94;62.06
74975;BME280;64061;50.836;19.138;2022-10-31T07:28:19;99021.53;;;22.96;62.40
74975;BME280;64061;50.836;19.138;2022-10-31T07:31:25;99019.53;;;23.01;62.78
74975;BME280;64061;50.836;19.138;2022-10-31T07:34:37;99019.44;;;23.06;62.67
74975;BME280;64061;50.836;19.138;2022-10-31T07:37:56;99015.88;;;23.06;62.55
74975;BME280;64061;50.836;19.138;2022-10-31T07:41:00;99018.34;;;23.07;62.49
74975;BME280;64061;50.836;19.138;2022-10-31T07:44:06;99020.78;;;23.09;62.16
74975;BME280;64061;50.836;19.138;2022-10-31T07:47:28;99019.97;;;23.08;62.16
74975;BME280;64061;50.836;19.138;2022-10-31T07:50:52;99028.22;;;23.08;61.98
74975;BME280;64061;50.836;19.138;2022-10-31T07:54:14;99021.91;;;23.08;61.76
74975;BME280;64061;50.836;19.138;2022-10-31T07:57:17;99029.03;;;23.09;61.40
74975;BME280;64061;50.836;19.138;2022-10-31T08:00:26;99026.31;;;23.09;61.20
74975;BME280;64061;50.836;19.138;2022-10-31T08:03:31;99025.72;;;23.12;61.12
74975;BME280;64061;50.836;19.138;2022-10-31T08:06:59;99025.63;;;23.17;61.01
74975;BME280;64061;50.836;19.138;2022-10-31T08:10:08;99034.13;;;23.21;61.00
74975;BME280;64061;50.836;19.138;2022-10-31T08:13:13;99033.75;;;23.27;61.32
74975;BME280;64061;50.836;19.138;2022-10-31T08:16:20;99038.88;;;23.34;61.10
74975;BME280;64061;50.836;19.138;2022-10-31T08:19:38;99035.25;;;23.38;60.62
74975;BME280;64061;50.836;19.138;2022-10-31T08:22:58;99037.53;;;23.50;60.54
74975;BME280;64061;50.836;19.138;2022-10-31T08:26:11;99033.41;;;23.53;60.61
74975;BME280;64061;50.836;19.138;2022-10-31T08:29:18;99036.88;;;23.58;60.53
74975;BME280;64061;50.836;19.138;2022-10-31T08:32:29;99030.47;;;23.63;60.48
74975;BME280;64061;50.836;19.138;2022-10-31T08:36:01;99031.53;;;23.67;60.24
74975;BME280;64061;50.836;19.138;2022-10-31T08:39:26;99038.06;;;23.71;60.43
74975;BME280;64061;50.836;19.138;2022-10-31T08:42:30;99045.72;;;23.74;60.22
74975;BME280;64061;50.836;19.138;2022-10-31T08:45:34;99043.19;;;23.77;60.14
74975;BME280;64061;50.836;19.138;2022-10-31T08:48:42;99051.09;;;23.65;57.64
74975;BME280;64061;50.836;19.138;2022-10-31T08:51:47;99043.72;;;23.23;56.84
74975;BME280;64061;50.836;19.138;2022-10-31T08:54:52;99047.78;;;22.88;56.66
74975;BME280;64061;50.836;19.138;2022-10-31T08:58:16;99037.97;;;22.53;56.53
74975;BME280;64061;50.836;19.138;2022-10-31T09:01:25;99036.03;;;22.30;56.30
74975;BME280;64061;50.836;19.138;2022-10-31T09:04:28;99038.69;;;22.11;56.11
74975;BME280;64061;50.836;19.138;2022-10-31T09:07:32;99041.81;;;21.99;56.24
74975;BME280;64061;50.836;19.138;2022-10-31T09:10:38;99047.63;;;21.93;56.22
74975;BME280;64061;50.836;19.138;2022-10-31T09:13:42;99035.31;;;21.85;56.19
74975;BME280;64061;50.836;19.138;2022-10-31T09:17:12;99038.69;;;21.77;55.85
74975;BME280;64061;50.836;19.138;2022-10-31T09:20:42;99044.22;;;21.72;56.24
74975;BME280;64061;50.836;19.138;2022-10-31T09:23:47;99050.81;;;21.71;56.20
74975;BME280;64061;50.836;19.138;2022-10-31T09:26:51;99050.81;;;21.71;56.04
74975;BME280;64061;50.836;19.138;2022-10-31T09:30:02;99057.94;;;21.72;56.03
74975;BME280;64061;50.836;19.138;2022-10-31T09:33:07;99053.56;;;21.71;55.61
74975;BME280;64061;50.836;19.138;2022-10-31T09:36:19;99053.06;;;21.69;55.83
74975;BME280;64061;50.836;19.138;2022-10-31T09:39:22;99054.69;;;21.70;55.73
74975;BME280;64061;50.836;19.138;2022-10-31T09:42:44;99051.94;;;21.70;55.50
74975;BME280;64061;50.836;19.138;2022-10-31T09:46:02;99053.09;;;21.64;55.05
74975;BME280;64061;50.836;19.138;2022-10-31T09:49:35;99050.88;;;21.66;55.17
74975;BME280;64061;50.836;19.138;2022-10-31T09:52:57;99051.97;;;21.65;55.06
74975;BME280;64061;50.836;19.138;2022-10-31T09:56:06;99054.69;;;21.70;55.06
74975;BME280;64061;50.836;19.138;2022-10-31T09:59:25;99055.16;;;21.82;54.96
74975;BME280;64061;50.836;19.138;2022-10-31T10:02:38;99051.88;;;21.80;54.76
74975;BME280;64061;50.836;19.138;2022-10-31T10:05:51;99053.78;;;21.80;54.69
74975;BME280;64061;50.836;19.138;2022-10-31T10:09:26;99053.28;;;21.73;54.48
74975;BME280;64061;50.836;19.138;2022-10-31T10:13:24;99050.25;;;21.74;54.31
74975;BME280;64061;50.836;19.138;2022-10-31T10:16:54;99050.78;;;21.76;54.13
74975;BME280;64061;50.836;19.138;2022-10-31T10:20:18;99041.97;;;21.79;54.01
74975;BME280;64061;50.836;19.138;2022-10-31T10:23:50;99040.53;;;21.87;53.94
74975;BME280;64061;50.836;19.138;2022-10-31T10:27:09;99046.03;;;21.87;53.76
74975;BME280;64061;50.836;19.138;2022-10-31T10:30:32;99037.50;;;21.88;53.38
74975;BME280;64061;50.836;19.138;2022-10-31T10:33:49;99040.25;;;21.88;53.13
74975;BME280;64061;50.836;19.138;2022-10-31T10:37:03;99049.03;;;21.90;53.19
74975;BME280;64061;50.836;19.138;2022-10-31T10:40:17;99041.59;;;21.91;52.99
74975;BME280;64061;50.836;19.138;2022-10-31T10:43:28;99034.75;;;21.88;52.87
74975;BME280;64061;50.836;19.138;2022-10-31T10:46:40;99040.25;;;21.88;52.70
74975;BME280;64061;50.836;19.138;2022-10-31T10:50:08;99032.28;;;21.87;52.65
74975;BME280;64061;50.836;19.138;2022-10-31T10:53:28;99033.13;;;21.87;52.22
74975;BME280;64061;50.836;19.138;2022-10-31T10:57:11;99035.81;;;21.92;52.46
74975;BME280;64061;50.836;19.138;2022-10-31T11:00:26;99024.00;;;21.92;52.26
74975;BME280;64061;50.836;19.138;2022-10-31T11:03:35;99034.72;;;21.93;52.01
74975;BME280;64061;50.836;19.138;2022-10-31T11:06:40;99029.75;;;21.95;52.21
74975;BME280;64061;50.836;19.138;2022-10-31T11:09:43;99036.88;;;22.01;51.73
74975;BME280;64061;50.836;19.138;2022-10-31T11:13:00;99035.91;;;22.16;52.07
74975;BME280;64061;50.836;19.138;2022-10-31T11:16:10;99028.19;;;22.18;51.63
74975;BME280;64061;50.836;19.138;2022-10-31T11:19:17;99022.94;;;22.22;51.33
74975;BME280;64061;50.836;19.138;2022-10-31T11:22:24;99013.06;;;22.21;51.00
74975;BME280;64061;50.836;19.138;2022-10-31T11:25:27;99027.09;;;22.19;51.06
74975;BME280;64061;50.836;19.138;2022-10-31T11:28:32;99022.94;;;22.22;50.60
74975;BME280;64061;50.836;19.138;2022-10-31T11:31:37;99016.34;;;22.23;50.49
74975;BME280;64061;50.836;19.138;2022-10-31T11:34:42;99014.69;;;22.22;49.97
74975;BME280;64061;50.836;19.138;2022-10-31T11:37:53;99015.28;;;22.19;50.16
74975;BME280;64061;50.836;19.138;2022-10-31T11:41:09;99027.09;;;22.19;50.07
74975;BME280;64061;50.836;19.138;2022-10-31T11:44:18;99022.94;;;22.22;50.02
74975;BME280;64061;50.836;19.138;2022-10-31T11:47:26;99025.03;;;22.30;49.80
74975;BME280;64061;50.836;19.138;2022-10-31T11:50:36;99021.19;;;22.31;49.78
74975;BME280;64061;50.836;19.138;2022-10-31T11:53:50;99024.38;;;22.38;49.84
74975;BME280;64061;50.836;19.138;2022-10-31T11:57:01;99021.06;;;22.41;49.51
74975;BME280;64061;50.836;19.138;2022-10-31T12:00:21;99024.84;;;22.50;49.31
74975;BME280;64061;50.836;19.138;2022-10-31T12:03:34;99015.81;;;22.45;49.37
74975;BME280;64061;50.836;19.138;2022-10-31T12:06:46;99015.56;;;22.41;49.48
74975;BME280;64061;50.836;19.138;2022-10-31T12:09:53;99006.75;;;22.44;49.21
74975;BME280;64061;50.836;19.138;2022-10-31T12:13:05;99009.72;;;22.48;49.71
74975;BME280;64061;50.836;19.138;2022-10-31T12:16:22;99014.69;;;22.46;48.99
74975;BME280;64061;50.836;19.138;2022-10-31T12:19:37;99012.69;;;22.51;48.98
74975;BME280;64061;50.836;19.138;2022-10-31T12:22:58;99008.84;;;22.52;48.93
74975;BME280;64061;50.836;19.138;2022-10-31T12:26:15;99009.38;;;22.54;48.88
74975;BME280;64061;50.836;19.138;2022-10-31T12:29:33;99005.22;;;22.57;48.41
74975;BME280;64061;50.836;19.138;2022-10-31T12:33:01;99003.25;;;22.62;48.98
74975;BME280;64061;50.836;19.138;2022-10-31T12:36:40;98996.69;;;22.58;48.95
74975;BME280;64061;50.836;19.138;2022-10-31T12:40:03;98990.88;;;22.60;49.11
74975;BME280;64061;50.836;19.138;2022-10-31T12:43:34;98991.03;;;22.68;49.04
74975;BME280;64061;50.836;19.138;2022-10-31T12:46:59;98990.47;;;22.71;48.96
74975;BME280;64061;50.836;19.138;2022-10-31T12:50:33;98993.78;;;22.68;49.05
74975;BME280;64061;50.836;19.138;2022-10-31T12:54:05;98982.78;;;22.68;48.98
74975;BME280;64061;50.836;19.138;2022-10-31T12:57:29;98986.66;;;22.67;49.38
74975;BME280;64061;50.836;19.138;2022-10-31T13:00:43;98982.50;;;22.70;48.95
74975;BME280;64061;50.836;19.138;2022-10-31T13:03:55;98985.00;;;22.66;49.37
74975;BME280;64061;50.836;19.138;2022-10-31T13:07:04;98985.25;;;22.70;49.12
74975;BME280;64061;50.836;19.138;2022-10-31T13:10:16;98986.59;;;22.72;49.10
74975;BME280;64061;50.836;19.138;2022-10-31T13:13:27;98980.22;;;22.77;49.17
74975;BME280;64061;50.836;19.138;2022-10-31T13:16:40;98984.03;;;22.81;49.34
74975;BME280;64061;50.836;19.138;2022-10-31T13:19:47;98982.09;;;22.82;49.32
74975;BME280;64061;50.836;19.138;2022-10-31T13:22:56;98988.13;;;22.84;48.73
74975;BME280;64061;50.836;19.138;2022-10-31T13:26:36;98990.66;;;22.80;49.16
74975;BME280;64061;50.836;19.138;2022-10-31T13:29:46;98983.25;;;22.75;49.25
74975;BME280;64061;50.836;19.138;2022-10-31T13:33:08;98987.72;;;22.71;49.49
74975;BME280;64061;50.836;19.138;2022-10-31T13:36:24;98981.16;;;22.67;49.54
74975;BME280;64061;50.836;19.138;2022-10-31T13:39:44;98994.31;;;22.70;49.28
74975;BME280;64061;50.836;19.138;2022-10-31T13:43:02;98996.00;;;22.66;49.53
74975;BME280;64061;50.836;19.138;2022-10-31T13:46:24;98997.66;;;22.67;49.03
74975;BME280;64061;50.836;19.138;2022-10-31T13:49:39;98994.09;;;22.67;49.62
74975;BME280;64061;50.836;19.138;2022-10-31T13:52:43;98989.41;;;22.67;49.38
74975;BME280;64061;50.836;19.138;2022-10-31T13:56:03;98993.50;;;22.70;49.65
74975;BME280;64061;50.836;19.138;2022-10-31T13:59:21;98996.00;;;22.66;49.75
74975;BME280;64061;50.836;19.138;2022-10-31T14:02:26;98996.63;;;22.63;49.80
74975;BME280;64061;50.836;19.138;2022-10-31T14:05:34;98989.94;;;22.69;49.84
74975;BME280;64061;50.836;19.138;2022-10-31T14:08:40;98992.41;;;22.71;49.91
74975;BME280;64061;50.836;19.138;2022-10-31T14:11:54;98989.41;;;22.67;49.93
74975;BME280;64061;50.836;19.138;2022-10-31T14:15:03;98991.91;;;22.64;49.93
74975;BME280;64061;50.836;19.138;2022-10-31T14:18:23;98986.78;;;22.57;49.82
74975;BME280;64061;50.836;19.138;2022-10-31T14:21:38;98982.69;;;22.55;49.86
74975;BME280;64061;50.836;19.138;2022-10-31T14:24:43;98983.34;;;22.47;49.83
74975;BME280;64061;50.836;19.138;2022-10-31T14:27:47;98980.06;;;22.45;50.02
74975;BME280;64061;50.836;19.138;2022-10-31T14:30:54;98981.19;;;22.44;49.98
74975;BME280;64061;50.836;19.138;2022-10-31T14:34:00;98980.94;;;22.40;49.92
74975;BME280;64061;50.836;19.138;2022-10-31T14:37:16;98976.22;;;22.46;49.95
74975;BME280;64061;50.836;19.138;2022-10-31T14:40:46;98972.66;;;22.45;50.04
74975;BME280;64061;50.836;19.138;2022-10-31T14:44:32;98972.16;;;22.38;50.01
74975;BME280;64061;50.836;19.138;2022-10-31T14:47:59;98965.69;;;22.29;50.29
74975;BME280;64061;50.836;19.138;2022-10-31T14:51:19;98977.34;;;22.21;50.43
74975;BME280;64061;50.836;19.138;2022-10-31T14:54:28;98970.78;;;22.17;50.43
74975;BME280;64061;50.836;19.138;2022-10-31T14:57:37;98970.31;;;22.10;50.68
74975;BME280;64061;50.836;19.138;2022-10-31T15:00:52;98965.97;;;22.03;50.60
74975;BME280;64061;50.836;19.138;2022-10-31T15:07:26;98963.63;;;21.87;51.07
74975;BME280;64061;50.836;19.138;2022-10-31T15:10:44;98959.78;;;21.88;51.22
74975;BME280;64061;50.836;19.138;2022-10-31T15:13:50;98954.09;;;21.79;51.55
74975;BME280;64061;50.836;19.138;2022-10-31T15:16:56;98957.16;;;21.73;51.71
74975;BME280;64061;50.836;19.138;2022-10-31T15:20:03;98964.13;;;21.65;51.82
74975;BME280;64061;50.836;19.138;2022-10-31T15:23:10;98965.84;;;21.56;52.23
74975;BME280;64061;50.836;19.138;2022-10-31T15:26:29;98959.59;;;21.45;52.50
74975;BME280;64061;50.836;19.138;2022-10-31T15:29:47;98959.41;;;21.37;52.63
74975;BME280;64061;50.836;19.138;2022-10-31T15:32:52;98961.16;;;21.22;53.18
74975;BME280;64061;50.836;19.138;2022-10-31T15:36:01;98954.34;;;21.15;53.48
74975;BME280;64061;50.836;19.138;2022-10-31T15:39:05;98961.78;;;21.09;53.09
74975;BME280;64061;50.836;19.138;2022-10-31T15:42:22;98969.00;;;20.95;53.22
74975;BME280;64061;50.836;19.138;2022-10-31T15:45:30;98966.13;;;20.71;54.03
74975;BME280;64061;50.836;19.138;2022-10-31T15:48:34;98971.13;;;20.54;54.50
74975;BME280;64061;50.836;19.138;2022-10-31T15:51:38;98968.44;;;20.39;54.82
74975;BME280;64061;50.836;19.138;2022-10-31T15:54:46;98971.47;;;20.27;54.93
74975;BME280;64061;50.836;19.138;2022-10-31T15:57:54;98974.25;;;20.12;55.38
74975;BME280;64061;50.836;19.138;2022-10-31T16:01:02;98971.81;;;20.00;55.55
74975;BME280;64061;50.836;19.138;2022-10-31T16:04:22;98970.47;;;19.92;55.15
74975;BME280;64061;50.836;19.138;2022-10-31T16:07:27;98973.25;;;19.77;56.00
74975;BME280;64061;50.836;19.138;2022-10-31T16:10:33;98969.97;;;19.70;56.16
74975;BME280;64061;50.836;19.138;2022-10-31T16:13:42;98978.72;;;19.62;56.22
74975;BME280;64061;50.836;19.138;2022-10-31T16:16:58;98974.09;;;19.52;56.43
74975;BME280;64061;50.836;19.138;2022-10-31T16:20:05;98969.94;;;19.45;56.55
74975;BME280;64061;50.836;19.138;2022-10-31T16:23:13;98969.94;;;19.40;56.71
74975;BME280;64061;50.836;19.138;2022-10-31T16:26:21;98975.41;;;19.30;56.93
74975;BME280;64061;50.836;19.138;2022-10-31T16:29:28;98968.56;;;19.27;57.07
74975;BME280;64061;50.836;19.138;2022-10-31T16:32:37;98977.31;;;19.19;57.41
74975;BME280;64061;50.836;19.138;2022-10-31T16:35:56;98977.59;;;19.12;57.62
74975;BME280;64061;50.836;19.138;2022-10-31T16:39:21;98974.28;;;19.05;57.77
74975;BME280;64061;50.836;19.138;2022-10-31T16:42:25;98981.41;;;19.01;57.78
74975;BME280;64061;50.836;19.138;2022-10-31T16:45:32;98985.19;;;18.95;58.04
74975;BME280;64061;50.836;19.138;2022-10-31T16:48:35;98981.09;;;18.88;58.17